Terminal Aerodrome Forecast
Issued by NWS North Platte, NE

Home | Current Version | Previous Version | Text Only | Print | Product List | Glossary On
Versions: 1 2 3 4 5 6 7 8 9 10 11 12 13 14 15 16 17 18 19 20
401
FTUS43 KLBF 162320
TAFVTN
TAF
KVTN 162320Z 1700/1724 34011KT P6SM SCT250
     FM170200 32007KT P6SM FEW250
     FM171300 26005KT P6SM FEW200
     FM172000 19007KT P6SM FEW200
     FM172300 16007KT P6SM FEW200=

USA.gov is the U.S. government's official web portal to all federal, state and local government web resources and services.